Terminal Aerodrome Forecast
Issued by NWS

Home | Current Version | Previous Version | Text Only | Print | Product List | Glossary On
Versions: 1 2 3 4 5 6 7 8 9 10 11 12 13 14 15 16 17 18 19 20 21
000
FTUS45 KPIH 281424 AAA
TAFSUN
TAF AMD
KSUN 281424Z 2814/0112 VRB05KT P6SM OVC015
     FM281900 12010KT P6SM VCSH SCT020 BKN050
     FM282200 22012G20KT P6SM VCSH SCT020 BKN050
     FM010300 31006KT P6SM SCT050=

USA.gov is the U.S. government's official web portal to all federal, state and local government web resources and services.